createdAt,value
2023-03-26T00:02:54.161Z,5.00
2023-03-26T00:08:01.705Z,4.90
2023-03-26T00:13:09.596Z,5.20
2023-03-26T00:18:16.590Z,5.20
2023-03-26T00:23:23.895Z,5.20
2023-03-26T00:28:32.523Z,5.10
2023-03-26T00:33:40.967Z,5.10
2023-03-26T00:38:49.705Z,5.00
2023-03-26T00:44:00.241Z,5.00
2023-03-26T00:49:08.846Z,5.10
2023-03-26T00:54:16.429Z,5.00
2023-03-26T00:59:24.278Z,5.00
2023-03-26T01:04:35.847Z,5.10
2023-03-26T01:09:47.942Z,5.20
2023-03-26T01:14:58.259Z,5.10
2023-03-26T01:20:25.218Z,5.40
2023-03-26T01:25:37.720Z,5.30
2023-03-26T01:30:56.422Z,5.40
2023-03-26T01:36:10.599Z,5.40
2023-03-26T01:41:38.136Z,5.40
2023-03-26T01:46:45.806Z,5.40
2023-03-26T01:51:54.105Z,5.30
2023-03-26T01:57:23.220Z,5.50
2023-03-26T02:02:40.377Z,5.60
2023-03-26T02:07:56.324Z,5.70
2023-03-26T02:13:03.534Z,5.80
2023-03-26T02:18:12.015Z,5.80
2023-03-26T02:23:18.756Z,5.60
2023-03-26T02:28:26.343Z,5.30
2023-03-26T02:33:34.312Z,5.20
2023-03-26T02:38:41.914Z,5.10
2023-03-26T02:43:48.733Z,4.90
2023-03-26T02:48:55.468Z,5.00
2023-03-26T02:54:03.692Z,5.10
2023-03-26T02:59:11.435Z,5.10
2023-03-26T03:04:18.380Z,4.90
2023-03-26T03:09:26.117Z,5.00
2023-03-26T03:14:32.941Z,5.00
2023-03-26T03:19:39.684Z,4.80
2023-03-26T03:24:46.470Z,4.80
2023-03-26T03:29:57.181Z,4.60
2023-03-26T03:35:04.269Z,4.50
2023-03-26T03:40:12.273Z,4.50
2023-03-26T03:45:19.347Z,4.50
2023-03-26T03:50:27.204Z,4.40
2023-03-26T03:55:33.910Z,4.30
2023-03-26T04:00:41.949Z,4.10
2023-03-26T04:05:49.899Z,3.90
2023-03-26T04:10:56.661Z,4.10
2023-03-26T04:16:03.405Z,3.90
2023-03-26T04:21:11.766Z,4.00
2023-03-26T04:26:20.741Z,3.90
2023-03-26T04:31:29.889Z,4.00
2023-03-26T04:36:36.735Z,3.90
2023-03-26T04:41:43.513Z,3.80
2023-03-26T04:46:52.597Z,3.90
2023-03-26T04:52:00.286Z,3.90
2023-03-26T04:57:17.290Z,3.90
2023-03-26T05:02:25.078Z,4.00
2023-03-26T05:07:31.855Z,4.00
2023-03-26T05:12:38.679Z,4.30
2023-03-26T05:17:46.739Z,4.70
2023-03-26T05:22:53.867Z,4.60
2023-03-26T05:28:00.622Z,4.80
2023-03-26T05:33:07.439Z,4.80
2023-03-26T05:38:14.416Z,4.70
2023-03-26T05:43:21.228Z,4.80
2023-03-26T05:48:28.992Z,4.60
2023-03-26T05:53:36.159Z,4.60
2023-03-26T05:58:44.093Z,4.60
2023-03-26T06:03:51.745Z,4.80
2023-03-26T06:09:00.940Z,4.80
2023-03-26T06:14:07.869Z,4.80
2023-03-26T06:19:14.646Z,4.90
2023-03-26T06:24:21.495Z,5.20
2023-03-26T06:29:28.656Z,5.30
2023-03-26T06:34:35.682Z,5.40
2023-03-26T06:39:43.032Z,5.50
2023-03-26T06:45:00.642Z,5.70
2023-03-26T06:50:09.626Z,5.90
2023-03-26T06:55:16.775Z,6.10
2023-03-26T07:00:23.964Z,6.30
2023-03-26T07:05:31.245Z,6.20
2023-03-26T07:10:38.014Z,6.40
2023-03-26T07:15:44.782Z,6.50
2023-03-26T07:20:52.023Z,6.70
2023-03-26T07:25:59.777Z,7.00
2023-03-26T07:31:22.966Z,7.10
2023-03-26T07:36:34.583Z,7.20
2023-03-26T07:41:49.215Z,7.20
2023-03-26T07:46:58.040Z,7.40
2023-03-26T07:52:06.893Z,7.50
2023-03-26T07:57:46.928Z,7.50
2023-03-26T08:03:21.017Z,7.40
2023-03-26T08:08:53.173Z,7.70
2023-03-26T08:14:41.650Z,7.80
2023-03-26T08:20:11.187Z,7.80
2023-03-26T08:25:31.193Z,7.60
2023-03-26T08:30:38.508Z,7.80
2023-03-26T08:35:47.249Z,7.90
2023-03-26T08:41:17.450Z,8.10
2023-03-26T08:46:43.553Z,8.40
2023-03-26T08:52:37.877Z,8.40
2023-03-26T08:58:03.653Z,8.60
2023-03-26T09:03:48.089Z,8.80
2023-03-26T09:09:26.203Z,8.40
2023-03-26T09:15:22.075Z,8.50
2023-03-26T09:20:53.961Z,8.90
2023-03-26T09:26:44.728Z,9.00
2023-03-26T09:32:23.168Z,9.10
2023-03-26T09:38:03.962Z,8.90
2023-03-26T09:43:45.413Z,9.50
2023-03-26T09:49:35.379Z,9.80
2023-03-26T09:55:08.691Z,9.90
2023-03-26T10:00:43.617Z,9.50
2023-03-26T10:06:00.778Z,9.70
2023-03-26T10:11:46.022Z,10.10
2023-03-26T10:17:29.094Z,10.50
2023-03-26T10:22:52.295Z,10.60
2023-03-26T10:28:06.584Z,11.00
2023-03-26T10:33:42.085Z,11.30
2023-03-26T10:39:36.014Z,12.10
2023-03-26T10:44:52.599Z,11.50
2023-03-26T10:50:09.459Z,11.30
2023-03-26T10:55:25.420Z,11.70
2023-03-26T11:00:31.915Z,11.50
2023-03-26T11:06:04.194Z,11.40
2023-03-26T11:11:33.001Z,11.70
2023-03-26T11:17:01.637Z,12.60
2023-03-26T11:22:30.488Z,12.80
2023-03-26T11:27:53.494Z,12.80
2023-03-26T11:33:04.569Z,12.80
2023-03-26T11:38:21.200Z,13.70
2023-03-26T11:43:34.762Z,13.90
2023-03-26T11:48:48.175Z,12.90
2023-03-26T11:53:54.950Z,13.00
2023-03-26T11:59:15.442Z,13.00
2023-03-26T12:04:43.639Z,13.10
2023-03-26T12:10:18.117Z,12.90
2023-03-26T12:15:19.261Z,13.00
2023-03-26T12:20:36.245Z,13.00
2023-03-26T12:25:43.907Z,12.90
2023-03-26T12:31:03.411Z,12.30
2023-03-26T12:36:28.142Z,12.10
2023-03-26T12:43:40.371Z,12.50
2023-03-26T12:47:57.722Z,12.30
2023-03-26T12:52:17.213Z,12.60
2023-03-26T12:57:31.090Z,12.80
2023-03-26T13:03:13.813Z,12.10
2023-03-26T13:08:45.021Z,12.50
2023-03-26T13:14:28.227Z,12.70
2023-03-26T13:19:42.549Z,12.50
2023-03-26T13:25:04.401Z,12.50
2023-03-26T13:30:49.258Z,12.40
2023-03-26T13:36:22.479Z,12.20
2023-03-26T13:41:25.412Z,12.10
2023-03-26T13:46:42.456Z,12.10
2023-03-26T13:51:58.947Z,12.00
2023-03-26T13:57:13.087Z,11.80
2023-03-26T14:02:41.406Z,11.90
2023-03-26T14:08:04.710Z,11.70
2023-03-26T14:13:43.132Z,11.70
2023-03-26T14:19:22.013Z,11.60
2023-03-26T14:24:45.877Z,11.60
2023-03-26T14:30:30.488Z,11.70
2023-03-26T14:36:08.754Z,11.60
2023-03-26T14:41:53.992Z,11.50
2023-03-26T14:47:22.045Z,11.60
2023-03-26T14:52:53.105Z,11.70
2023-03-26T14:58:22.757Z,11.70
2023-03-26T15:04:10.669Z,11.70
2023-03-26T15:09:57.528Z,11.60
2023-03-26T15:15:43.420Z,11.60
2023-03-26T15:21:17.347Z,11.60
2023-03-26T15:27:01.528Z,11.40
2023-03-26T15:32:51.747Z,11.40
2023-03-26T15:38:12.222Z,11.20
2023-03-26T15:43:21.837Z,10.80
2023-03-26T15:49:09.459Z,10.80
2023-03-26T15:54:36.098Z,10.80
2023-03-26T15:59:55.580Z,10.50
2023-03-26T16:05:29.406Z,10.10
2023-03-26T16:10:56.411Z,9.90
2023-03-26T16:16:14.568Z,9.40
2023-03-26T16:21:38.168Z,9.00
2023-03-26T16:27:08.695Z,8.90
2023-03-26T16:32:37.409Z,8.60
2023-03-26T16:37:53.884Z,8.50
2023-03-26T16:43:41.273Z,8.50
2023-03-26T16:49:23.898Z,8.30
2023-03-26T16:54:50.156Z,7.60
2023-03-26T17:00:31.798Z,7.60
2023-03-26T17:05:43.381Z,7.50
2023-03-26T17:11:06.543Z,7.40
2023-03-26T17:16:38.695Z,7.40
2023-03-26T17:22:13.204Z,7.60
2023-03-26T17:27:31.871Z,7.70
2023-03-26T17:33:08.858Z,7.80
2023-03-26T17:38:29.240Z,7.80
2023-03-26T17:43:54.557Z,7.70
2023-03-26T17:49:17.823Z,7.70
2023-03-26T17:54:48.846Z,7.60
2023-03-26T18:00:05.637Z,7.70
2023-03-26T18:05:16.901Z,7.70
2023-03-26T18:11:02.868Z,7.70
2023-03-26T18:16:23.885Z,7.80
2023-03-26T18:21:38.609Z,7.70
2023-03-26T18:26:49.942Z,7.80
2023-03-26T18:32:00.901Z,7.50
2023-03-26T18:37:21.389Z,7.50
2023-03-26T18:42:30.141Z,7.40
2023-03-26T18:47:39.556Z,7.40
2023-03-26T18:52:47.215Z,7.40
2023-03-26T18:57:53.963Z,7.00
2023-03-26T19:03:07.874Z,6.90
2023-03-26T19:08:13.725Z,6.80
2023-03-26T19:13:26.440Z,6.80
2023-03-26T19:18:34.452Z,6.60
2023-03-26T19:23:43.449Z,6.60
2023-03-26T19:28:54.841Z,6.40
2023-03-26T19:34:06.124Z,6.50
2023-03-26T19:39:24.266Z,6.50
2023-03-26T19:44:31.724Z,6.20
2023-03-26T19:50:04.996Z,6.20
2023-03-26T19:55:28.315Z,6.20
2023-03-26T20:00:35.315Z,6.40
2023-03-26T20:05:42.298Z,6.40
2023-03-26T20:10:49.062Z,6.30
2023-03-26T20:16:11.016Z,6.30
2023-03-26T20:21:19.799Z,6.20
2023-03-26T20:26:27.322Z,6.50
2023-03-26T20:31:35.013Z,6.50
2023-03-26T20:36:42.099Z,6.50
2023-03-26T20:41:50.778Z,6.50
2023-03-26T20:46:59.341Z,6.60
2023-03-26T20:52:06.798Z,6.50
2023-03-26T20:57:13.980Z,6.60
2023-03-26T21:02:22.077Z,6.60
2023-03-26T21:07:29.377Z,6.50
2023-03-26T21:12:42.543Z,6.50
2023-03-26T21:17:51.572Z,6.50
2023-03-26T21:23:30.694Z,6.60
2023-03-26T21:28:47.498Z,6.30
2023-03-26T21:33:55.787Z,6.50
2023-03-26T21:39:03.726Z,6.40
2023-03-26T21:44:11.295Z,6.40
2023-03-26T21:49:20.104Z,6.50
2023-03-26T21:54:33.688Z,6.50
2023-03-26T22:00:11.982Z,6.50
2023-03-26T22:06:29.159Z,6.30
2023-03-26T22:11:36.101Z,6.40
2023-03-26T22:16:43.920Z,6.40
2023-03-26T22:21:51.502Z,6.40
2023-03-26T22:26:58.564Z,6.40
2023-03-26T22:32:05.361Z,6.40
2023-03-26T22:37:12.421Z,6.20
2023-03-26T22:42:20.065Z,6.30
2023-03-26T22:47:27.008Z,6.10
2023-03-26T22:52:33.764Z,6.40
2023-03-26T22:57:41.805Z,6.20
2023-03-26T23:02:49.429Z,6.30
2023-03-26T23:07:57.567Z,6.30
2023-03-26T23:13:04.342Z,6.20
2023-03-26T23:18:11.349Z,6.10
2023-03-26T23:23:18.927Z,6.10
2023-03-26T23:28:26.514Z,6.10
2023-03-26T23:33:37.020Z,6.20
2023-03-26T23:38:44.670Z,6.10
2023-03-26T23:43:55.842Z,5.90
2023-03-26T23:49:04.462Z,6.00
2023-03-26T23:54:11.976Z,6.00
2023-03-26T23:59:19.468Z,6.10
